Time;durP1;ratioP1;P1;durP2;ratioP2;P2;SDS_P1;SDS_P2;PMS_P1;PMS_P2;Temp;Humidity;BMP_temperature;BMP_pressure;BME280_temperature;BME280_humidity;BME280_pressure;Samples;Min_cycle;Max_cycle;Signal;HPM_P1;HPM_P2
2022/12/18 00:02:01;;;;;;;;;;;;;;;4.80;100.00;101593.03;5038087;28;20432;-84
2022/12/18 00:04:27;;;;;;;;;;;;;;;4.82;100.00;101591.13;5038203;28;19917;-82
2022/12/18 00:06:52;;;;;;;;;;;;;;;4.79;100.00;101592.16;5037906;28;19921;-84
2022/12/18 00:09:19;;;;;;;;;;;;;;;4.71;100.00;101597.06;5038958;28;19928;-82
2022/12/18 00:11:44;;;;;;;;;;;;;;;4.86;100.00;101597.88;5019447;28;19966;-83
2022/12/18 00:14:11;;;;;;;;;;;;;;;4.97;100.00;101601.47;5036804;28;19928;-83
2022/12/18 00:16:36;;;;;;;;;;;;;;;4.95;100.00;101602.53;5036641;28;19921;-82
2022/12/18 00:19:02;;;;;;;;;;;;;;;5.08;100.00;101606.03;5037483;28;20277;-83
2022/12/18 00:21:28;;;;;;;;;;;;;;;5.19;100.00;101609.66;5037463;28;19956;-84
2022/12/18 00:23:57;;;;;;;;;;;;;;;5.19;100.00;101614.06;5036513;28;19925;-82
2022/12/18 00:26:25;;;;;;;;;;;;;;;5.19;100.00;101619.31;5019292;28;19948;-84
2022/12/18 00:28:57;;;;;;;;;;;;;;;5.15;100.00;101620.47;5019686;28;19921;-83
2022/12/18 00:34:04;;;;;;;;;;;;;;;5.24;100.00;101613.78;5242109;22;19983;-82
2022/12/18 00:36:39;;;;;;;;;;;;;;;5.18;100.00;101615.84;5023230;28;19921;-84
2022/12/18 00:39:08;;;;;;;;;;;;;;;5.22;100.00;101598.94;5023852;28;19917;-82
2022/12/18 00:44:20;;;;;;;;;;;;;;;5.13;100.00;101604.81;5039537;28;19921;-81
2022/12/18 00:46:46;;;;;;;;;;;;;;;5.13;100.00;101606.59;5038811;28;19928;-83
2022/12/18 00:49:12;;;;;;;;;;;;;;;5.29;100.00;101612.50;5038053;28;19963;-85
2022/12/18 00:51:37;;;;;;;;;;;;;;;5.25;100.00;101623.31;5039518;28;20244;-84
2022/12/18 00:54:03;;;;;;;;;;;;;;;5.13;100.00;101617.09;5021999;28;19925;-83
2022/12/18 00:56:28;;;;;;;;;;;;;;;5.02;100.00;101625.66;5042197;28;19984;-84
2022/12/18 00:58:54;;;;;;;;;;;;;;;5.10;100.00;101617.31;5023279;28;19921;-84
2022/12/18 01:01:20;;;;;;;;;;;;;;;5.12;100.00;101620.66;5024203;28;20020;-84
2022/12/18 01:03:49;;;;;;;;;;;;;;;5.48;100.00;101623.47;5180621;22;20313;-82
2022/12/18 01:06:16;;;;;;;;;;;;;;;5.37;100.00;101619.91;5038692;28;20308;-82
2022/12/18 01:08:44;;;;;;;;;;;;;;;5.22;100.00;101624.38;5039366;28;19967;-80
2022/12/18 01:11:13;;;;;;;;;;;;;;;5.31;100.00;101625.53;5005593;28;19921;-84
2022/12/18 01:13:40;;;;;;;;;;;;;;;5.32;100.00;101628.06;5020192;28;19921;-82
2022/12/18 01:16:06;;;;;;;;;;;;;;;5.21;100.00;101627.94;5038124;28;19929;-83
2022/12/18 01:18:34;;;;;;;;;;;;;;;5.19;100.00;101632.47;5037308;28;19987;-82
2022/12/18 01:21:00;;;;;;;;;;;;;;;5.13;100.00;101638.13;5037588;28;20333;-81
2022/12/18 01:23:25;;;;;;;;;;;;;;;5.14;100.00;101650.28;5020753;28;19921;-83
2022/12/18 01:25:51;;;;;;;;;;;;;;;5.30;100.00;101666.78;5038614;28;20374;-82
2022/12/18 01:28:16;;;;;;;;;;;;;;;5.39;100.00;101666.16;5003402;28;19921;-81
2022/12/18 01:30:42;;;;;;;;;;;;;;;5.28;100.00;101673.91;5019882;28;20406;-83
2022/12/18 01:33:07;;;;;;;;;;;;;;;5.34;100.00;101684.00;5037267;28;20015;-85
2022/12/18 01:35:39;;;;;;;;;;;;;;;5.12;100.00;101678.47;5030130;28;20028;-82
2022/12/18 01:38:05;;;;;;;;;;;;;;;5.22;100.00;101690.06;5049169;28;19948;-82
2022/12/18 01:40:30;;;;;;;;;;;;;;;4.93;100.00;101698.97;5027678;28;19944;-83
2022/12/18 01:42:55;;;;;;;;;;;;;;;5.04;100.00;101701.75;5047472;28;19929;-81
2022/12/18 01:45:24;;;;;;;;;;;;;;;5.10;100.00;101696.13;5046504;28;19988;-84
2022/12/18 01:47:50;;;;;;;;;;;;;;;5.07;100.00;101704.22;5059627;22;19936;-80
2022/12/18 01:50:31;;;;;;;;;;;;;;;4.92;100.00;101707.78;5037155;28;19921;-82
2022/12/18 01:52:58;;;;;;;;;;;;;;;4.87;100.00;101709.88;5040373;28;19929;-83
2022/12/18 01:55:30;;;;;;;;;;;;;;;5.02;100.00;101709.75;5049784;28;19951;-83
2022/12/18 01:57:58;;;;;;;;;;;;;;;5.00;100.00;101726.56;5021786;28;20235;-83
2022/12/18 02:00:24;;;;;;;;;;;;;;;5.07;100.00;101727.84;5023426;28;19956;-86
2022/12/18 02:02:54;;;;;;;;;;;;;;;4.99;100.00;101724.84;5041940;28;19921;-84
2022/12/18 02:05:29;;;;;;;;;;;;;;;4.85;100.00;101728.34;5024057;28;19921;-83
2022/12/18 02:08:16;;;;;;;;;;;;;;;4.90;100.00;101730.69;5022742;28;19961;-80
2022/12/18 02:10:56;;;;;;;;;;;;;;;5.07;100.00;101738.38;5022830;28;20071;-81
2022/12/18 02:13:37;;;;;;;;;;;;;;;5.09;100.00;101736.47;5040500;28;20061;-82
2022/12/18 02:16:09;;;;;;;;;;;;;;;5.04;100.00;101743.78;5022917;28;20301;-82
2022/12/18 02:18:41;;;;;;;;;;;;;;;5.28;100.00;101742.22;5040135;28;19987;-83
2022/12/18 02:21:12;;;;;;;;;;;;;;;5.09;100.00;101742.56;5041473;28;19984;-83
2022/12/18 02:23:46;;;;;;;;;;;;;;;4.96;100.00;101740.81;5023455;28;20289;-84
2022/12/18 02:26:24;;;;;;;;;;;;;;;4.95;100.00;101747.84;5023770;28;19921;-85
2022/12/18 02:28:56;;;;;;;;;;;;;;;5.05;100.00;101750.72;5093653;22;19932;-85
2022/12/18 02:31:27;;;;;;;;;;;;;;;5.14;100.00;101756.25;5019473;28;19928;-83
2022/12/18 02:33:55;;;;;;;;;;;;;;;5.02;100.00;101757.03;5020799;28;19921;-83
2022/12/18 02:36:22;;;;;;;;;;;;;;;5.06;100.00;101755.91;5020477;28;19924;-85
2022/12/18 02:38:49;;;;;;;;;;;;;;;4.93;100.00;101747.09;5021580;28;19921;-83
2022/12/18 02:41:16;;;;;;;;;;;;;;;4.96;100.00;101746.91;5022231;28;19922;-84
2022/12/18 02:43:49;;;;;;;;;;;;;;;5.02;100.00;101756.19;5019773;28;19922;-83
2022/12/18 02:46:26;;;;;;;;;;;;;;;5.09;100.00;101765.38;5021454;28;19929;-82
2022/12/18 02:48:55;;;;;;;;;;;;;;;5.03;100.00;101763.13;5021264;28;19952;-85
2022/12/18 02:51:21;;;;;;;;;;;;;;;5.11;100.00;101763.47;5020413;28;19940;-82
2022/12/18 02:53:52;;;;;;;;;;;;;;;5.00;100.00;101763.34;5020738;28;19922;-81
2022/12/18 02:56:18;;;;;;;;;;;;;;;4.98;100.00;101763.41;5024062;28;19924;-82
2022/12/18 02:58:52;;;;;;;;;;;;;;;5.20;100.00;101763.72;5026693;28;20283;-83
2022/12/18 03:01:49;;;;;;;;;;;;;;;5.04;100.00;101767.44;5028249;28;19918;-83
2022/12/18 03:04:27;;;;;;;;;;;;;;;4.91;100.00;101769.97;5027995;28;19936;-83
2022/12/18 03:06:55;;;;;;;;;;;;;;;4.76;100.00;101773.56;5020388;28;20430;-84
2022/12/18 03:09:24;;;;;;;;;;;;;;;4.87;100.00;101773.72;5020199;28;19937;-83
2022/12/18 03:14:41;;;;;;;;;;;;;;;4.83;100.00;101766.16;5018403;28;19928;-83
2022/12/18 03:17:10;;;;;;;;;;;;;;;4.68;100.00;101767.94;5018978;28;19905;-83
2022/12/18 03:19:40;;;;;;;;;;;;;;;4.67;100.00;101776.78;5017338;28;19921;-84
2022/12/18 03:22:07;;;;;;;;;;;;;;;4.53;100.00;101769.72;5001695;28;20012;-83
2022/12/18 03:24:41;;;;;;;;;;;;;;;4.75;100.00;101771.03;5017773;28;20308;-81
2022/12/18 03:27:12;;;;;;;;;;;;;;;4.66;100.00;101770.66;5017585;28;19927;-82
2022/12/18 03:29:44;;;;;;;;;;;;;;;4.63;100.00;101772.63;5017474;28;20026;-85
2022/12/18 03:32:15;;;;;;;;;;;;;;;4.68;100.00;101774.03;5017058;28;19921;-86
2022/12/18 03:34:42;;;;;;;;;;;;;;;4.69;100.00;101775.72;5017312;28;20429;-82
2022/12/18 03:37:11;;;;;;;;;;;;;;;4.80;100.00;101772.44;5018393;28;19922;-82
2022/12/18 03:39:36;;;;;;;;;;;;;;;4.80;100.00;101775.06;5018942;28;19921;-81
2022/12/18 03:42:15;;;;;;;;;;;;;;;4.76;100.00;101786.69;5017009;28;19917;-83
2022/12/18 03:45:01;;;;;;;;;;;;;;;4.71;100.00;101793.19;5017260;28;19969;-83
2022/12/18 03:47:31;;;;;;;;;;;;;;;4.67;100.00;101798.59;5019506;28;20294;-81
2022/12/18 03:50:11;;;;;;;;;;;;;;;4.68;100.00;101805.53;5018094;28;19975;-83
2022/12/18 03:52:57;;;;;;;;;;;;;;;4.63;100.00;101802.38;5017157;28;19929;-84
2022/12/18 03:55:24;;;;;;;;;;;;;;;4.56;100.00;101808.91;5018438;28;19921;-84
2022/12/18 03:57:57;;;;;;;;;;;;;;;4.49;100.00;101819.88;5016766;28;19925;-85
2022/12/18 04:00:24;;;;;;;;;;;;;;;4.54;100.00;101812.59;5016885;28;19925;-81
2022/12/18 04:03:00;;;;;;;;;;;;;;;4.65;100.00;101816.22;5016437;28;20461;-83
2022/12/18 04:05:34;;;;;;;;;;;;;;;4.67;100.00;101819.59;5016286;28;19929;-85
2022/12/18 04:08:00;;;;;;;;;;;;;;;4.54;100.00;101823.91;5016245;28;20017;-83
2022/12/18 04:10:26;;;;;;;;;;;;;;;4.46;100.00;101826.16;5016891;28;19952;-82
2022/12/18 04:12:55;;;;;;;;;;;;;;;4.47;100.00;101830.47;5019011;28;19921;-82
2022/12/18 04:15:20;;;;;;;;;;;;;;;4.61;100.00;101835.72;5019749;28;19928;-81
2022/12/18 04:17:47;;;;;;;;;;;;;;;4.50;100.00;101832.91;5016695;28;20008;-83
2022/12/18 04:20:14;;;;;;;;;;;;;;;4.58;100.00;101835.91;5017132;28;19922;-82
2022/12/18 04:22:42;;;;;;;;;;;;;;;4.55;100.00;101836.09;5015204;28;19917;-85
2022/12/18 04:25:08;;;;;;;;;;;;;;;4.53;100.00;101843.22;5015792;28;19922;-82
2022/12/18 04:27:37;;;;;;;;;;;;;;;4.66;100.00;101841.56;4999393;28;19921;-81
2022/12/18 04:30:04;;;;;;;;;;;;;;;4.76;100.00;101848.88;5014696;28;19953;-84
2022/12/18 04:32:30;;;;;;;;;;;;;;;4.66;100.00;101849.44;5016418;28;19968;-84
2022/12/18 04:34:55;;;;;;;;;;;;;;;4.57;100.00;101854.41;5016053;28;19932;-84
2022/12/18 04:37:21;;;;;;;;;;;;;;;4.61;100.00;101840.97;5014390;28;19969;-82
2022/12/18 04:39:48;;;;;;;;;;;;;;;4.74;100.00;101850.75;5014686;28;19925;-84
2022/12/18 04:42:21;;;;;;;;;;;;;;;4.78;100.00;101852.25;5015581;28;19925;-82
2022/12/18 04:44:47;;;;;;;;;;;;;;;4.65;100.00;101853.00;5014705;28;20331;-83
2022/12/18 04:47:12;;;;;;;;;;;;;;;4.60;100.00;101847.19;5018540;28;20008;-83
2022/12/18 04:49:37;;;;;;;;;;;;;;;4.55;100.00;101859.72;5030273;28;19929;-83
2022/12/18 04:52:03;;;;;;;;;;;;;;;4.61;100.00;101854.09;5036317;28;19980;-85
2022/12/18 04:54:28;;;;;;;;;;;;;;;4.61;100.00;101867.22;5037340;28;19926;-82
2022/12/18 04:56:54;;;;;;;;;;;;;;;4.65;100.00;101878.41;5023228;28;19941;-83
2022/12/18 04:59:20;;;;;;;;;;;;;;;4.72;100.00;101866.59;5016268;28;19921;-84
2022/12/18 05:01:45;;;;;;;;;;;;;;;4.89;100.00;101865.59;5015354;28;20020;-82
2022/12/18 05:04:11;;;;;;;;;;;;;;;4.80;100.00;101871.41;5015578;28;19913;-84
2022/12/18 05:06:36;;;;;;;;;;;;;;;4.85;100.00;101879.84;5015533;28;19921;-84
2022/12/18 05:09:01;;;;;;;;;;;;;;;4.76;100.00;101885.66;5016202;28;19917;-84
2022/12/18 05:11:27;;;;;;;;;;;;;;;4.99;100.00;101891.22;5015931;28;19928;-83
2022/12/18 05:13:52;;;;;;;;;;;;;;;4.85;100.00;101885.94;5014767;28;19948;-84
2022/12/18 05:16:18;;;;;;;;;;;;;;;4.78;100.00;101894.25;5015189;28;19928;-83
2022/12/18 05:18:43;;;;;;;;;;;;;;;4.80;100.00;101892.41;5015032;28;20012;-84
2022/12/18 05:21:08;;;;;;;;;;;;;;;4.78;100.00;101895.13;5015645;28;19975;-83
2022/12/18 05:23:34;;;;;;;;;;;;;;;4.91;100.00;101901.31;5014904;28;19921;-84
2022/12/18 05:26:00;;;;;;;;;;;;;;;4.82;100.00;101909.75;5015352;28;19967;-83
2022/12/18 05:28:27;;;;;;;;;;;;;;;5.10;100.00;101911.59;5015122;28;19929;-82
2022/12/18 05:30:53;;;;;;;;;;;;;;;5.22;100.00;101910.81;5015673;28;19927;-81
2022/12/18 05:33:21;;;;;;;;;;;;;;;5.13;100.00;101917.50;5016627;28;19922;-83
2022/12/18 05:35:59;;;;;;;;;;;;;;;5.14;100.00;101920.94;5019843;28;19932;-87
2022/12/18 05:38:28;;;;;;;;;;;;;;;4.94;100.00;101922.16;5020302;28;20008;-80
2022/12/18 05:40:53;;;;;;;;;;;;;;;4.94;100.00;101921.34;5018459;28;20012;-84
2022/12/18 05:43:19;;;;;;;;;;;;;;;5.05;100.00;101924.13;5019632;28;20436;-83
2022/12/18 05:45:45;;;;;;;;;;;;;;;4.94;100.00;101921.34;5019211;28;19925;-83
2022/12/18 05:48:10;;;;;;;;;;;;;;;4.80;100.00;101929.19;5017882;28;20158;-84
2022/12/18 05:50:38;;;;;;;;;;;;;;;4.76;100.00;101927.66;5017381;28;19921;-85
2022/12/18 05:53:08;;;;;;;;;;;;;;;4.76;100.00;101938.16;5018910;28;20017;-80
2022/12/18 05:55:37;;;;;;;;;;;;;;;4.76;100.00;101946.03;5018648;28;20000;-85
2022/12/18 05:58:03;;;;;;;;;;;;;;;4.57;100.00;101954.97;5019857;28;19964;-80
2022/12/18 06:00:28;;;;;;;;;;;;;;;4.58;100.00;101956.69;5020962;28;19921;-87
2022/12/18 06:02:54;;;;;;;;;;;;;;;4.77;100.00;101955.63;5019633;28;19968;-83
2022/12/18 06:05:22;;;;;;;;;;;;;;;4.80;100.00;101960.69;5018022;28;20085;-84
2022/12/18 06:07:47;;;;;;;;;;;;;;;4.60;100.00;101965.34;5019392;28;19918;-84
2022/12/18 06:10:13;;;;;;;;;;;;;;;4.57;100.00;101965.47;5013761;28;19975;-81
2022/12/18 06:12:39;;;;;;;;;;;;;;;4.47;100.00;101969.59;5019180;28;19925;-83
2022/12/18 06:15:07;;;;;;;;;;;;;;;4.60;100.00;101967.97;5020008;28;19921;-84
2022/12/18 06:17:34;;;;;;;;;;;;;;;4.73;100.00;101973.34;5018760;28;19922;-82
2022/12/18 06:19:59;;;;;;;;;;;;;;;4.71;100.00;101977.00;5018110;28;20008;-84
2022/12/18 06:22:25;;;;;;;;;;;;;;;4.63;100.00;101985.31;5019745;28;19968;-82
2022/12/18 06:24:51;;;;;;;;;;;;;;;4.60;100.00;101982.88;5018888;28;20004;-85
2022/12/18 06:27:16;;;;;;;;;;;;;;;4.57;100.00;101994.38;5017221;28;20030;-84
2022/12/18 06:29:42;;;;;;;;;;;;;;;4.55;100.00;102004.13;5018105;28;19926;-86
2022/12/18 06:32:07;;;;;;;;;;;;;;;4.63;100.00;102007.16;5017878;28;19927;-80
2022/12/18 06:34:33;;;;;;;;;;;;;;;4.59;100.00;102010.91;5015223;28;19925;-79
2022/12/18 06:36:59;;;;;;;;;;;;;;;4.56;100.00;102008.44;5012364;28;19953;-83
2022/12/18 06:39:24;;;;;;;;;;;;;;;4.61;100.00;102016.91;4996781;28;19929;-79
2022/12/18 06:41:49;;;;;;;;;;;;;;;4.69;100.00;102022.56;4996667;28;19918;-82
2022/12/18 06:44:18;;;;;;;;;;;;;;;4.74;100.00;102018.84;4996707;28;19980;-82
2022/12/18 06:46:43;;;;;;;;;;;;;;;4.68;100.00;102020.88;4995306;28;19922;-81
2022/12/18 06:49:09;;;;;;;;;;;;;;;4.76;100.00;102025.69;4996851;28;19929;-81
2022/12/18 06:51:35;;;;;;;;;;;;;;;4.64;100.00;102027.22;4996880;28;20025;-78
2022/12/18 06:54:00;;;;;;;;;;;;;;;4.59;100.00;102037.16;4997157;28;19918;-81
2022/12/18 06:56:25;;;;;;;;;;;;;;;4.57;100.00;102035.56;4995917;28;19926;-80
2022/12/18 06:58:51;;;;;;;;;;;;;;;4.64;100.00;102034.25;4996674;28;19926;-79
2022/12/18 07:01:16;;;;;;;;;;;;;;;4.82;100.00;102032.34;4996760;28;19922;-79
2022/12/18 07:03:42;;;;;;;;;;;;;;;4.86;100.00;102028.63;4995616;28;20404;-81
2022/12/18 07:06:17;;;;;;;;;;;;;;;4.83;100.00;102029.66;4996184;28;19921;-81
2022/12/18 07:08:42;;;;;;;;;;;;;;;4.57;100.00;102039.00;4996815;28;19929;-80
2022/12/18 07:11:08;;;;;;;;;;;;;;;4.62;100.00;102039.59;4996371;28;19922;-80
2022/12/18 07:13:33;;;;;;;;;;;;;;;4.78;100.00;102043.97;4996489;28;20000;-82
2022/12/18 07:16:08;;;;;;;;;;;;;;;4.57;100.00;102046.88;4996586;28;20268;-83
2022/12/18 07:18:34;;;;;;;;;;;;;;;4.50;100.00;102037.69;4996881;28;19921;-82
2022/12/18 07:21:02;;;;;;;;;;;;;;;4.48;100.00;102047.41;4996794;28;19922;-82
2022/12/18 07:23:28;;;;;;;;;;;;;;;4.51;100.00;102049.84;4995272;28;19940;-79
2022/12/18 07:25:53;;;;;;;;;;;;;;;4.50;100.00;102058.69;4997631;28;19922;-87
2022/12/18 07:28:18;;;;;;;;;;;;;;;4.57;100.00;102067.88;5005756;28;19936;-82
2022/12/18 07:30:44;;;;;;;;;;;;;;;4.56;100.00;102066.22;5005154;28;19918;-87
2022/12/18 07:33:12;;;;;;;;;;;;;;;4.54;100.00;102075.94;5000328;28;19922;-85
2022/12/18 07:35:38;;;;;;;;;;;;;;;4.42;100.00;102075.78;4999669;28;20371;-85
2022/12/18 07:38:03;;;;;;;;;;;;;;;4.52;100.00;102083.06;5001679;28;19922;-85
2022/12/18 07:40:28;;;;;;;;;;;;;;;4.82;100.00;102090.13;5001474;28;20306;-88
2022/12/18 07:42:57;;;;;;;;;;;;;;;4.88;100.00;102089.78;4999385;28;19928;-88
2022/12/18 07:45:23;;;;;;;;;;;;;;;4.68;100.00;102099.66;5006617;28;19942;-86
2022/12/18 07:47:48;;;;;;;;;;;;;;;4.86;100.00;102099.53;5015723;28;19940;-87
2022/12/18 07:50:14;;;;;;;;;;;;;;;4.65;100.00;102094.56;5019541;28;19937;-90
2022/12/18 07:52:39;;;;;;;;;;;;;;;4.65;100.00;102097.19;5013911;28;19929;-87
2022/12/18 07:55:05;;;;;;;;;;;;;;;4.79;100.00;102108.69;5008894;28;19917;-89
2022/12/18 07:57:33;;;;;;;;;;;;;;;4.75;100.00;102108.03;4997990;28;19933;-89
2022/12/18 07:59:58;;;;;;;;;;;;;;;4.59;100.00;102115.91;5009547;28;19922;-84
2022/12/18 08:02:23;;;;;;;;;;;;;;;4.61;100.00;102114.03;5025902;28;19921;-81
2022/12/18 08:04:49;;;;;;;;;;;;;;;4.63;100.00;102122.69;5014620;28;19926;-84
2022/12/18 08:07:14;;;;;;;;;;;;;;;4.97;100.00;102126.06;5030324;28;19921;-88
2022/12/18 08:09:39;;;;;;;;;;;;;;;4.89;100.00;102130.88;5009880;28;20020;-86
2022/12/18 08:12:05;;;;;;;;;;;;;;;4.80;100.00;102142.78;5017937;28;19969;-84
2022/12/18 08:14:30;;;;;;;;;;;;;;;4.89;100.00;102144.03;5000061;28;19925;-87
2022/12/18 08:16:56;;;;;;;;;;;;;;;4.80;100.00;102147.19;5008747;28;19957;-84
2022/12/18 08:19:21;;;;;;;;;;;;;;;4.78;100.00;102147.25;5008801;28;20008;-91
2022/12/18 08:21:46;;;;;;;;;;;;;;;4.92;100.00;102155.22;5003582;28;19954;-85
2022/12/18 08:24:12;;;;;;;;;;;;;;;5.14;100.00;102162.72;4999051;28;19925;-83
2022/12/18 08:26:37;;;;;;;;;;;;;;;5.01;100.00;102165.19;5001131;28;19921;-83
2022/12/18 08:29:03;;;;;;;;;;;;;;;5.02;100.00;102163.41;5010206;28;19926;-87
2022/12/18 08:31:29;;;;;;;;;;;;;;;4.93;100.00;102167.44;5004627;28;19976;-87
2022/12/18 08:33:55;;;;;;;;;;;;;;;4.95;100.00;102178.69;5011002;28;20046;-83
2022/12/18 08:36:21;;;;;;;;;;;;;;;5.05;100.00;102176.38;5000081;28;20409;-86
2022/12/18 08:38:47;;;;;;;;;;;;;;;5.17;100.00;102171.28;5009276;28;20430;-85
2022/12/18 08:41:13;;;;;;;;;;;;;;;5.11;100.00;102181.28;5005277;28;20302;-84
2022/12/18 08:46:27;;;;;;;;;;;;;;;5.46;100.00;102195.91;5012676;28;20354;-82
2022/12/18 08:48:53;;;;;;;;;;;;;;;5.45;100.00;102191.59;5000708;28;19933;-83
2022/12/18 08:51:19;;;;;;;;;;;;;;;5.43;100.00;102182.94;5016084;28;19921;-83
2022/12/18 08:53:45;;;;;;;;;;;;;;;5.47;100.00;102189.69;5015206;28;19929;-82
2022/12/18 08:56:10;;;;;;;;;;;;;;;5.37;100.00;102187.72;5006533;28;20269;-84
2022/12/18 08:58:36;;;;;;;;;;;;;;;5.31;100.00;102202.03;5002012;28;19937;-82
2022/12/18 09:01:02;;;;;;;;;;;;;;;5.43;100.00;102197.88;5004341;28;19953;-83
2022/12/18 09:03:27;;;;;;;;;;;;;;;5.48;100.00;102196.66;5004910;28;20331;-84
2022/12/18 09:05:52;;;;;;;;;;;;;;;5.59;100.00;102204.78;4995267;28;19922;-83
2022/12/18 09:08:18;;;;;;;;;;;;;;;5.60;100.00;102205.66;5006602;28;20025;-85
2022/12/18 09:10:44;;;;;;;;;;;;;;;5.70;100.00;102207.63;4999540;28;19918;-84
2022/12/18 09:13:11;;;;;;;;;;;;;;;5.61;100.00;102215.19;4999120;28;19928;-81
2022/12/18 09:15:46;;;;;;;;;;;;;;;5.59;100.00;102210.06;4997747;28;19921;-83
2022/12/18 09:18:13;;;;;;;;;;;;;;;5.34;100.00;102217.63;4998968;28;19968;-84
2022/12/18 09:20:38;;;;;;;;;;;;;;;5.38;100.00;102210.41;4999821;28;19933;-84
2022/12/18 09:23:04;;;;;;;;;;;;;;;5.38;100.00;102215.69;4999211;28;19930;-83
2022/12/18 09:25:33;;;;;;;;;;;;;;;5.44;100.00;102213.53;4999211;28;19922;-85
2022/12/18 09:27:59;;;;;;;;;;;;;;;5.43;100.00;102216.28;5015310;28;19921;-84
2022/12/18 09:30:24;;;;;;;;;;;;;;;5.33;100.00;102221.22;4999209;28;20353;-84
2022/12/18 09:32:49;;;;;;;;;;;;;;;5.31;100.00;102214.31;4998653;28;19917;-83
2022/12/18 09:35:15;;;;;;;;;;;;;;;5.40;100.00;102214.66;5000094;28;19929;-88
2022/12/18 09:37:42;;;;;;;;;;;;;;;5.38;100.00;102210.41;5000043;28;20382;-87
2022/12/18 09:40:19;;;;;;;;;;;;;;;5.36;100.00;102213.16;4999313;28;19922;-86
2022/12/18 09:42:48;;;;;;;;;;;;;;;5.31;100.00;102217.81;5001209;28;20027;-83
2022/12/18 09:45:14;;;;;;;;;;;;;;;5.32;100.00;102211.63;5005427;28;19917;-84
2022/12/18 09:47:41;;;;;;;;;;;;;;;5.41;100.00;102211.09;5002931;28;20029;-85
2022/12/18 09:50:21;;;;;;;;;;;;;;;5.66;100.00;102205.28;5000710;28;19921;-84
2022/12/18 09:52:49;;;;;;;;;;;;;;;5.98;100.00;102206.03;5014337;28;19932;-85
2022/12/18 09:55:14;;;;;;;;;;;;;;;5.99;100.00;102207.72;4997649;28;19926;-85
2022/12/18 09:57:45;;;;;;;;;;;;;;;5.95;100.00;102200.94;4998993;28;20015;-85
2022/12/18 10:00:19;;;;;;;;;;;;;;;5.91;100.00;102204.69;4999031;28;19921;-87
2022/12/18 10:02:45;;;;;;;;;;;;;;;5.77;100.00;102208.09;4998701;28;20002;-84
2022/12/18 10:05:16;;;;;;;;;;;;;;;5.63;100.00;102214.16;4999569;28;19917;-85
2022/12/18 10:08:01;;;;;;;;;;;;;;;5.77;100.00;102212.56;4997993;28;19922;-85
2022/12/18 10:10:29;;;;;;;;;;;;;;;5.85;100.00;102207.66;4998788;28;20298;-86
2022/12/18 10:13:13;;;;;;;;;;;;;;;5.64;100.00;102218.50;4999826;28;19922;-87
2022/12/18 10:15:53;;;;;;;;;;;;;;;5.50;100.00;102205.28;4999776;28;19926;-85
2022/12/18 10:18:25;;;;;;;;;;;;;;;5.52;100.00;102207.84;4997440;28;19928;-84
2022/12/18 10:21:03;;;;;;;;;;;;;;;5.43;100.00;102201.34;4999241;28;20445;-88
2022/12/18 10:23:47;;;;;;;;;;;;;;;5.50;100.00;102205.28;4999097;28;20040;-83
2022/12/18 10:26:15;;;;;;;;;;;;;;;5.41;100.00;102204.97;4999068;28;19968;-84
2022/12/18 10:28:41;;;;;;;;;;;;;;;5.52;100.00;102203.44;4999833;28;19926;-83
2022/12/18 10:31:07;;;;;;;;;;;;;;;5.47;100.00;102210.72;5013449;28;19960;-82
2022/12/18 10:33:33;;;;;;;;;;;;;;;5.52;100.00;102213.13;5020801;28;19925;-85
2022/12/18 10:36:00;;;;;;;;;;;;;;;5.59;100.00;102210.06;5020442;28;19929;-88
2022/12/18 10:38:28;;;;;;;;;;;;;;;5.73;100.00;102207.44;5018503;28;19925;-88
2022/12/18 10:40:53;;;;;;;;;;;;;;;5.68;100.00;102203.41;5019669;28;19921;-84
2022/12/18 10:43:25;;;;;;;;;;;;;;;5.68;100.00;102199.00;5020437;28;20271;-83
2022/12/18 10:46:09;;;;;;;;;;;;;;;5.66;100.00;102190.34;5036362;28;19910;-81
2022/12/18 10:48:40;;;;;;;;;;;;;;;5.71;100.00;102201.44;5030804;28;19964;-87
2022/12/18 10:51:06;;;;;;;;;;;;;;;5.65;100.00;102193.06;5021923;28;19983;-87
2022/12/18 10:53:32;;;;;;;;;;;;;;;5.88;100.00;102204.88;5020432;28;19918;-87
2022/12/18 10:55:58;;;;;;;;;;;;;;;5.77;100.00;102202.03;5021337;28;19953;-85
2022/12/18 10:58:27;;;;;;;;;;;;;;;5.85;100.00;102202.41;5021495;28;19926;-87
2022/12/18 11:01:06;;;;;;;;;;;;;;;6.02;100.00;102204.91;5020022;28;20404;-89
2022/12/18 11:03:35;;;;;;;;;;;;;;;5.99;100.00;102207.72;5021590;28;19925;-89
2022/12/18 11:06:24;;;;;;;;;;;;;;;5.87;100.00;102208.44;5020652;28;19921;-90
2022/12/18 11:08:59;;;;;;;;;;;;;;;5.80;100.00;102207.09;5021651;28;19931;-86
2022/12/18 11:11:26;;;;;;;;;;;;;;;5.89;100.00;102209.22;5028610;28;19989;-86
2022/12/18 11:14:04;;;;;;;;;;;;;;;6.21;100.00;102213.41;5006656;28;19979;-89
2022/12/18 11:16:33;;;;;;;;;;;;;;;6.10;100.00;102207.91;5022803;28;19922;-85
2022/12/18 11:19:16;;;;;;;;;;;;;;;6.10;100.00;102215.81;5020366;28;19921;-85
2022/12/18 11:21:52;;;;;;;;;;;;;;;;;;;;;
2022/12/18 11:24:27;;;;;;;;;;;;;;;6.15;100.00;102209.34;5021747;28;19921;-89
2022/12/18 11:26:52;;;;;;;;;;;;;;;6.15;100.00;102205.88;5022597;28;19922;-89
2022/12/18 11:29:23;;;;;;;;;;;;;;;6.17;100.00;102206.63;5046584;23;19931;-88
2022/12/18 11:32:20;;;;;;;;;;;;;;;6.26;100.00;102205.22;5011330;28;19921;-89
2022/12/18 11:35:00;;;;;;;;;;;;;;;6.34;100.00;102203.81;4952083;28;20303;-88
2022/12/18 11:37:27;;;;;;;;;;;;;;;6.57;100.00;102202.38;4935146;28;19926;-90
2022/12/18 11:39:58;;;;;;;;;;;;;;;6.65;100.00;102203.63;4956937;28;19926;-86
2022/12/18 11:42:42;;;;;;;;;;;;;;;6.62;100.00;102193.28;4951288;28;19923;-88
2022/12/18 11:45:11;;;;;;;;;;;;;;;6.52;100.00;102192.16;4980873;28;19926;-88
2022/12/18 11:47:52;;;;;;;;;;;;;;;6.51;100.00;102195.72;4964735;28;19928;-87
2022/12/18 11:50:31;;;;;;;;;;;;;;;6.62;100.00;102192.44;4976900;28;19972;-85
2022/12/18 11:53:03;;;;;;;;;;;;;;;6.86;100.00;102190.03;4945116;28;19922;-88
2022/12/18 11:55:52;;;;;;;;;;;;;;;6.70;100.00;102200.69;4962814;28;19954;-87
2022/12/18 11:58:44;;;;;;;;;;;;;;;6.60;100.00;102195.13;4978316;28;19926;-85
2022/12/18 12:01:14;;;;;;;;;;;;;;;6.60;100.00;102205.69;4960445;28;20375;-86
2022/12/18 12:03:54;;;;;;;;;;;;;;;6.47;100.00;102199.47;4965142;28;19922;-87
2022/12/18 12:06:52;;;;;;;;;;;;;;;6.52;100.00;102202.69;4947047;29;19926;-85
2022/12/18 12:09:27;;;;;;;;;;;;;;;6.41;100.00;102199.88;4879744;29;19928;-86
2022/12/18 12:12:01;;;;;;;;;;;;;;;6.48;100.00;102195.06;4906208;29;19930;-86
2022/12/18 12:14:39;;;;;;;;;;;;;;;6.41;100.00;102199.00;4919383;29;20340;-86
2022/12/18 12:17:24;;;;;;;;;;;;;;;6.50;100.00;102201.06;4934744;29;19934;-85
2022/12/18 12:19:54;;;;;;;;;;;;;;;6.80;100.00;102200.94;5003185;28;19918;-86
2022/12/18 12:22:29;;;;;;;;;;;;;;;6.94;100.00;102193.00;4997671;28;20310;-86
2022/12/18 12:24:57;;;;;;;;;;;;;;;6.94;100.00;102193.00;5015893;28;20406;-87
2022/12/18 12:27:23;;;;;;;;;;;;;;;6.90;100.00;102191.50;5016029;28;20286;-86
2022/12/18 12:29:55;;;;;;;;;;;;;;;7.00;100.00;102187.34;5015036;28;19922;-85
2022/12/18 12:32:20;;;;;;;;;;;;;;;6.91;100.00;102180.88;5016109;28;20401;-85
2022/12/18 12:34:52;;;;;;;;;;;;;;;6.90;100.00;102178.34;5015093;28;19918;-88
2022/12/18 12:37:36;;;;;;;;;;;;;;;6.96;100.00;102177.97;5014575;28;20345;-86
2022/12/18 12:40:01;;;;;;;;;;;;;;;7.00;100.00;102171.53;4997987;28;20325;-87
2022/12/18 12:43:15;;;;;;;;;;;;;;;7.05;100.00;102172.09;5014579;28;19921;-85
2022/12/18 12:45:49;;;;;;;;;;;;;;;7.04;100.00;102173.88;4934976;29;20292;-88
2022/12/18 12:48:17;;;;;;;;;;;;;;;7.27;100.00;102169.75;4903830;29;19922;-85
2022/12/18 12:50:44;;;;;;;;;;;;;;;7.10;100.00;102172.63;4919688;29;19927;-84
2022/12/18 12:53:23;;;;;;;;;;;;;;;6.81;100.00;102171.88;4934827;29;20344;-84
2022/12/18 12:55:50;;;;;;;;;;;;;;;6.71;100.00;102174.25;4938356;28;20302;-83
2022/12/18 12:58:26;;;;;;;;;;;;;;;6.79;100.00;102173.78;4999926;28;19921;-85
2022/12/18 13:01:10;;;;;;;;;;;;;;;6.82;100.00;102172.72;5019824;28;20469;-82